Time;durP1;ratioP1;P1;durP2;ratioP2;P2;SDS_P1;SDS_P2;PMS_P1;PMS_P2;Temp;Humidity;BMP_temperature;BMP_pressure;BME280_temperature;BME280_humidity;BME280_pressure;Samples;Min_cycle;Max_cycle;Signal;HPM_P1;HPM_P2
2022/04/25 00:00:05;;;;;;;1.80;1.13;;;;;;;3.16;71.04;101487.06;4903253;29;20088;-82
2022/04/25 00:02:30;;;;;;;1.40;0.90;;;;;;;3.12;71.32;101472.34;4902817;29;20025;-82
2022/04/25 00:04:55;;;;;;;1.42;0.80;;;;;;;3.12;71.48;101479.50;4902845;29;20048;-83
2022/04/25 00:07:21;;;;;;;2.60;0.93;;;;;;;2.94;71.38;101457.97;4886717;29;20055;-83
2022/04/25 00:09:46;;;;;;;1.50;1.00;;;;;;;2.97;71.97;101481.66;4886124;29;20029;-82
2022/04/25 00:12:12;;;;;;;1.45;1.08;;;;;;;3.02;71.80;101474.13;4911078;29;20053;-83
2022/04/25 00:14:37;;;;;;;1.95;0.90;;;;;;;2.99;72.04;101474.41;4903462;29;20045;-82
2022/04/25 00:17:03;;;;;;;4.30;0.90;;;;;;;2.98;71.82;101475.34;4912366;29;20056;-81
2022/04/25 00:19:28;;;;;;;1.10;0.80;;;;;;;2.90;72.10;101469.88;4906656;29;20037;-82
2022/04/25 00:21:53;;;;;;;2.67;1.05;;;;;;;2.81;72.77;101477.69;4901401;29;20419;-82
2022/04/25 00:24:19;;;;;;;4.45;1.00;;;;;;;2.77;72.45;101476.22;4902345;29;20033;-82
2022/04/25 00:26:45;;;;;;;2.05;1.02;;;;;;;2.51;72.98;101440.44;4901436;29;20009;-83
2022/04/25 00:29:12;;;;;;;1.30;0.90;;;;;;;2.41;72.74;101437.72;4900002;29;20025;-82
2022/04/25 00:31:37;;;;;;;3.05;1.10;;;;;;;2.40;72.97;101449.31;4901079;29;20013;-82
2022/04/25 00:34:03;;;;;;;1.10;0.90;;;;;;;2.60;73.38;101479.50;4901435;29;20041;-82
2022/04/25 00:36:28;;;;;;;1.63;1.00;;;;;;;2.44;73.45;101455.22;4901424;29;20029;-82
2022/04/25 00:38:54;;;;;;;1.70;0.90;;;;;;;2.47;73.58;101468.22;4902453;29;20037;-81
2022/04/25 00:41:19;;;;;;;2.72;1.10;;;;;;;2.43;73.89;101472.97;4902082;29;20100;-82
2022/04/25 00:43:44;;;;;;;1.15;1.05;;;;;;;2.39;74.29;101471.53;4902667;29;20096;-81
2022/04/25 00:46:21;;;;;;;1.20;0.90;;;;;;;2.30;74.73;101467.00;4903073;29;20518;-82
2022/04/25 00:48:47;;;;;;;1.52;0.90;;;;;;;2.24;74.70;101456.88;4903338;29;20128;-82
2022/04/25 00:51:13;;;;;;;1.27;1.00;;;;;;;2.31;74.48;101472.16;4903558;29;20039;-82
2022/04/25 00:53:38;;;;;;;1.15;1.00;;;;;;;2.16;74.91;101452.22;4907919;29;20009;-82
2022/04/25 00:56:05;;;;;;;3.05;1.15;;;;;;;2.25;75.32;101469.19;4919587;29;20045;-82
2022/04/25 00:58:31;;;;;;;1.60;0.93;;;;;;;2.03;75.39;101444.44;4921611;29;20028;-82
2022/04/25 01:00:56;;;;;;;3.15;1.00;;;;;;;2.18;75.44;101460.91;4921739;29;20041;-80
2022/04/25 01:03:21;;;;;;;1.55;1.00;;;;;;;2.21;75.36;101452.66;4924499;29;21036;-82
2022/04/25 01:05:47;;;;;;;1.80;1.10;;;;;;;2.26;75.50;101466.41;4919350;29;20039;-82
2022/04/25 01:08:12;;;;;;;1.73;1.00;;;;;;;2.05;75.46;101441.66;4904658;29;20037;-82
2022/04/25 01:10:37;;;;;;;3.47;1.27;;;;;;;2.06;75.91;101453.97;4886651;29;20021;-82
2022/04/25 01:13:03;;;;;;;1.38;1.00;;;;;;;2.21;75.83;101463.28;4902512;29;20122;-82
2022/04/25 01:15:30;;;;;;;1.60;1.20;;;;;;;2.21;75.87;101473.06;4902022;29;20033;-82
2022/04/25 01:17:56;;;;;;;1.67;1.10;;;;;;;2.20;76.48;101476.72;4886077;29;20033;-81
2022/04/25 01:20:21;;;;;;;1.20;1.10;;;;;;;2.19;76.36;101465.25;4886794;29;20055;-81
2022/04/25 01:22:56;;;;;;;2.10;1.17;;;;;;;2.22;76.10;101465.00;4893289;29;20040;-82
2022/04/25 01:28:05;;;;;;;1.98;1.25;;;;;;;2.27;76.44;101460.13;4881608;29;20077;-82
2022/04/25 01:30:33;;;;;;;2.65;1.20;;;;;;;2.24;76.01;101456.88;4902074;29;20044;-81
2022/04/25 01:32:59;;;;;;;1.45;1.17;;;;;;;2.09;76.29;101435.13;4900654;29;20092;-80
2022/04/25 01:35:25;;;;;;;4.95;1.30;;;;;;;2.20;76.75;101448.34;4901953;29;20029;-82
2022/04/25 01:37:51;;;;;;;2.70;1.25;;;;;;;2.17;76.67;101451.25;4888209;29;20047;-81
2022/04/25 01:40:16;;;;;;;4.25;1.35;;;;;;;2.08;77.14;101441.41;4883815;29;20033;-82
2022/04/25 01:42:42;;;;;;;1.23;1.08;;;;;;;2.13;77.06;101452.50;4892877;29;20025;-81
2022/04/25 01:45:08;;;;;;;1.55;1.08;;;;;;;2.05;77.61;101446.97;4900409;29;20381;-82
2022/04/25 01:47:33;;;;;;;3.35;1.30;;;;;;;1.97;77.50;101438.81;4886899;29;20053;-82
2022/04/25 01:49:59;;;;;;;1.75;0.98;;;;;;;1.97;77.71;101444.13;4914148;29;20096;-81
2022/04/25 01:52:29;;;;;;;1.88;1.10;;;;;;;1.92;78.07;101443.63;4902591;29;20040;-82
2022/04/25 01:54:55;;;;;;;1.40;1.30;;;;;;;1.75;78.30;101422.00;4915434;29;20534;-82
2022/04/25 01:57:21;;;;;;;1.42;1.10;;;;;;;1.77;78.57;101424.53;4918001;29;20028;-82
2022/04/25 01:59:46;;;;;;;2.45;1.27;;;;;;;1.87;78.33;101441.38;4910147;29;20448;-82
2022/04/25 02:02:13;;;;;;;2.42;1.25;;;;;;;1.86;78.32;101439.72;4884974;29;20033;-82
2022/04/25 02:04:39;;;;;;;1.67;1.20;;;;;;;1.81;78.46;101445.38;4900607;29;20045;-81
2022/04/25 02:07:07;;;;;;;2.42;1.33;;;;;;;1.59;78.71;101409.19;4904546;29;20033;-81
2022/04/25 02:09:33;;;;;;;2.03;1.35;;;;;;;1.73;78.88;101436.38;4898996;29;20060;-82
2022/04/25 02:11:58;;;;;;;1.85;1.30;;;;;;;1.70;78.94;101437.47;4896536;29;20452;-81
2022/04/25 02:14:24;;;;;;;1.67;1.20;;;;;;;1.60;79.18;101428.59;4885146;29;20104;-82
2022/04/25 02:16:49;;;;;;;1.27;1.17;;;;;;;1.64;79.07;101428.19;4882380;29;20090;-81
2022/04/25 02:19:14;;;;;;;3.00;1.15;;;;;;;1.61;79.17;101428.44;4897140;29;20093;-81
2022/04/25 02:21:40;;;;;;;2.15;1.30;;;;;;;1.59;79.31;101434.84;4885089;29;20029;-82
2022/04/25 02:24:06;;;;;;;1.70;1.40;;;;;;;1.53;79.29;101419.44;4897782;29;20037;-82
2022/04/25 02:26:31;;;;;;;2.22;1.20;;;;;;;1.56;79.45;101428.00;4867956;29;20049;-81
2022/04/25 02:28:57;;;;;;;2.53;1.50;;;;;;;1.48;79.77;101418.97;4901114;29;20032;-82
2022/04/25 02:31:24;;;;;;;1.75;1.38;;;;;;;1.44;79.81;101420.19;4917416;29;20088;-81
2022/04/25 02:33:50;;;;;;;3.15;1.42;;;;;;;1.49;80.02;101433.91;4913422;29;20061;-81
2022/04/25 02:36:16;;;;;;;3.00;1.38;;;;;;;1.48;80.17;101433.06;4899626;29;20070;-81
2022/04/25 02:38:41;;;;;;;1.58;1.17;;;;;;;1.43;80.11;101427.31;4899391;29;20029;-81
2022/04/25 02:41:09;;;;;;;2.65;1.45;;;;;;;1.23;80.39;101405.06;4897164;29;20471;-82
2022/04/25 02:43:42;;;;;;;1.77;1.33;;;;;;;1.17;80.43;101394.94;4897730;29;20045;-81
2022/04/25 02:46:14;;;;;;;1.50;1.40;;;;;;;1.39;80.66;101423.19;4896637;29;20044;-81
2022/04/25 02:48:41;;;;;;;2.05;1.35;;;;;;;1.16;81.13;101398.56;4898410;29;20044;-82
2022/04/25 02:51:07;;;;;;;1.70;1.35;;;;;;;1.26;81.46;101428.66;4898653;29;20104;-82
2022/04/25 02:53:34;;;;;;;2.15;1.50;;;;;;;1.24;81.41;101417.34;4899398;29;20029;-81
2022/04/25 02:56:02;;;;;;;2.15;1.58;;;;;;;1.08;81.78;101396.50;4898636;29;20037;-81
2022/04/25 02:58:29;;;;;;;2.45;1.30;;;;;;;1.10;81.82;101394.59;4883566;29;20029;-82
2022/04/25 03:00:55;;;;;;;1.75;1.52;;;;;;;1.21;81.84;101414.94;4883293;29;20108;-82
2022/04/25 03:03:21;;;;;;;2.83;1.50;;;;;;;0.90;82.15;101377.63;4897813;29;20439;-81
2022/04/25 03:05:48;;;;;;;1.70;1.40;;;;;;;1.10;82.18;101404.34;4897642;29;20057;-82
2022/04/25 03:08:17;;;;;;;2.38;1.70;;;;;;;1.09;82.42;101408.81;4898648;29;20523;-82
2022/04/25 03:10:42;;;;;;;1.83;1.45;;;;;;;0.92;82.61;101380.16;4897685;29;20100;-81
2022/04/25 03:13:09;;;;;;;3.17;1.65;;;;;;;1.08;82.71;101398.31;4894809;29;20025;-81
2022/04/25 03:15:40;;;;;;;4.25;1.80;;;;;;;1.06;82.69;101405.53;4905036;29;20064;-81
2022/04/25 03:18:12;;;;;;;3.42;1.63;;;;;;;1.02;83.22;101393.50;4916596;29;20033;-81
2022/04/25 03:20:38;;;;;;;2.25;1.50;;;;;;;1.05;82.66;101402.06;4920011;29;20029;-82
2022/04/25 03:23:07;;;;;;;3.03;1.60;;;;;;;1.04;83.11;101407.50;4919068;29;20029;-81
2022/04/25 03:25:32;;;;;;;2.13;1.60;;;;;;;1.03;83.35;101405.81;4914565;29;20052;-82
2022/04/25 03:27:58;;;;;;;4.53;1.67;;;;;;;1.05;83.69;101403.88;4918377;29;20052;-82
2022/04/25 03:30:24;;;;;;;2.33;1.70;;;;;;;1.00;83.58;101395.47;4917599;29;20063;-81
2022/04/25 03:32:50;;;;;;;2.80;1.73;;;;;;;1.05;83.95;101393.28;4913040;29;20040;-81
2022/04/25 03:35:17;;;;;;;1.85;1.60;;;;;;;1.13;83.83;101398.81;4916097;29;20032;-81
2022/04/25 03:37:44;;;;;;;1.73;1.50;;;;;;;1.03;83.79;101389.91;4888719;29;20052;-82
2022/04/25 03:40:10;;;;;;;3.28;1.80;;;;;;;1.16;83.72;101402.06;4898392;29;20043;-82
2022/04/25 03:42:38;;;;;;;2.83;1.92;;;;;;;1.20;83.81;101401.81;4900995;29;20080;-81
2022/04/25 03:45:04;;;;;;;3.92;1.90;;;;;;;1.22;83.85;101408.66;4903974;29;20030;-81
2022/04/25 03:47:32;;;;;;;2.38;1.60;;;;;;;1.17;84.19;101397.59;4895544;29;20029;-82
2022/04/25 03:49:57;;;;;;;2.63;2.05;;;;;;;1.24;84.35;101405.91;4894448;29;20037;-82
2022/04/25 03:52:23;;;;;;;2.20;1.63;;;;;;;1.07;84.15;101371.00;4897466;29;20052;-82
2022/04/25 03:57:32;;;;;;;4.03;1.70;;;;;;;1.29;84.53;101398.41;4897765;29;20105;-82
2022/04/25 03:59:57;;;;;;;1.58;1.48;;;;;;;1.26;84.23;101383.59;4896379;29;20029;-82
2022/04/25 04:02:23;;;;;;;3.75;1.85;;;;;;;2.13;81.72;101399.38;4899570;29;20084;-83
2022/04/25 04:04:49;;;;;;;2.83;1.80;;;;;;;2.96;79.55;101400.22;4896011;29;20057;-82
2022/04/25 04:07:15;;;;;;;3.50;1.90;;;;;;;3.44;76.72;101388.84;4883615;29;20045;-83
2022/04/25 04:09:46;;;;;;;2.75;1.67;;;;;;;4.10;75.00;101409.44;4904147;29;20072;-82
2022/04/25 04:12:16;;;;;;;1.98;1.60;;;;;;;4.62;72.78;101399.22;4908887;29;20025;-82
2022/04/25 04:14:42;;;;;;;4.25;1.70;;;;;;;5.06;71.38;101397.59;4901814;29;20021;-82
2022/04/25 04:17:08;;;;;;;2.50;1.63;;;;;;;5.53;69.35;101407.28;4910949;29;20060;-82
2022/04/25 04:19:38;;;;;;;2.30;1.60;;;;;;;5.94;68.01;101403.22;4917052;29;20040;-82
2022/04/25 04:22:07;;;;;;;2.45;1.90;;;;;;;6.31;66.55;101402.16;4905133;29;20115;-82
2022/04/25 04:24:34;;;;;;;4.78;1.65;;;;;;;6.54;64.95;101400.63;4902847;29;20073;-81
2022/04/25 04:27:01;;;;;;;2.60;1.60;;;;;;;6.91;64.06;101410.19;4897106;29;20036;-82
2022/04/25 04:29:30;;;;;;;2.30;1.77;;;;;;;7.16;62.52;101413.81;4902235;29;20061;-81
2022/04/25 04:32:01;;;;;;;1.92;1.63;;;;;;;5.78;61.90;101157.38;5173163;23;20511;-82
2022/04/25 04:34:28;;;;;;;3.28;1.70;;;;;;;5.35;62.16;101127.09;4913630;29;20037;-83
2022/04/25 04:36:53;;;;;;;2.80;1.63;;;;;;;5.77;60.96;101124.50;4926032;29;20032;-83
2022/04/25 04:41:54;;;;;;;1.83;1.67;;;;;;;6.78;58.32;101151.19;5768069;23;20063;-84
2022/04/25 04:52:05;;;;;;;1.95;1.25;;;;;;;9.11;54.68;101362.94;5005751;23;20093;-80
2022/04/25 04:54:31;;;;;;;4.68;1.70;;;;;;;9.63;53.26;101405.25;4886174;29;20044;-81
2022/04/25 04:56:56;;;;;;;2.38;1.40;;;;;;;9.87;52.74;101406.94;4892703;29;20037;-82
2022/04/25 04:59:21;;;;;;;3.75;1.58;;;;;;;9.92;52.59;101377.66;4897570;29;20052;-83
2022/04/25 05:01:47;;;;;;;2.85;1.83;;;;;;;10.30;50.88;101397.38;4886906;29;20029;-82
2022/04/25 05:04:12;;;;;;;2.83;1.40;;;;;;;10.43;51.31;101401.25;4895814;29;20040;-81
2022/04/25 05:06:37;;;;;;;1.83;1.42;;;;;;;10.41;50.75;101381.78;4885647;29;20040;-80
2022/04/25 05:09:03;;;;;;;2.45;1.48;;;;;;;10.77;50.31;101398.88;4886244;29;20047;-81
2022/04/25 05:11:30;;;;;;;2.67;1.40;;;;;;;10.76;49.87;101401.75;4865253;29;20151;-82
2022/04/25 05:13:56;;;;;;;2.85;1.52;;;;;;;10.85;49.68;101405.19;4888245;29;20132;-83
2022/04/25 05:16:21;;;;;;;4.38;1.30;;;;;;;10.66;49.55;101398.50;4880363;29;20096;-81
2022/04/25 05:18:47;;;;;;;2.85;1.42;;;;;;;9.33;53.62;101396.19;4885608;29;20060;-81
2022/04/25 05:21:15;;;;;;;2.55;1.35;;;;;;;8.12;59.20;101405.25;4889928;29;20057;-84
2022/04/25 05:23:42;;;;;;;2.75;1.50;;;;;;;7.42;62.21;101402.19;4902631;29;20037;-82
2022/04/25 05:26:08;;;;;;;2.00;1.50;;;;;;;7.13;63.14;101403.44;4905640;29;20030;-82
2022/04/25 05:28:33;;;;;;;3.42;1.30;;;;;;;6.65;64.13;101383.47;4886624;29;20486;-82
2022/04/25 05:30:59;;;;;;;3.38;1.33;;;;;;;6.63;64.97;101422.09;4887414;29;20401;-81
2022/04/25 05:33:24;;;;;;;2.13;1.40;;;;;;;6.45;65.50;101403.41;4881335;29;20041;-81
2022/04/25 05:35:49;;;;;;;2.10;1.30;;;;;;;6.68;65.32;101417.94;4891432;29;20047;-83
2022/04/25 05:38:15;;;;;;;3.83;1.45;;;;;;;6.63;65.58;101416.75;4898467;29;20048;-82
2022/04/25 05:40:41;;;;;;;1.20;1.10;;;;;;;6.61;65.73;101414.22;4895701;29;20542;-82
2022/04/25 05:43:07;;;;;;;2.22;1.00;;;;;;;6.68;65.42;101414.41;4899920;29;20020;-83
2022/04/25 05:45:33;;;;;;;1.65;1.02;;;;;;;6.83;65.64;101418.19;4889211;29;20035;-83
2022/04/25 05:47:59;;;;;;;1.50;1.00;;;;;;;6.82;64.92;101409.34;4886350;29;20059;-83
2022/04/25 05:53:09;;;;;;;1.38;1.00;;;;;;;6.90;64.57;101403.16;4897813;29;20049;-83
2022/04/25 05:55:36;;;;;;;5.68;1.15;;;;;;;6.82;63.81;101392.41;4910355;29;20089;-83
2022/04/25 05:58:02;;;;;;;2.30;1.13;;;;;;;6.92;63.99;101403.88;4904285;29;20025;-83
2022/04/25 06:00:29;;;;;;;1.20;1.10;;;;;;;6.89;63.75;101403.31;4902268;29;20021;-84
2022/04/25 06:02:55;;;;;;;3.17;1.27;;;;;;;6.76;63.21;101396.59;4896194;29;20024;-82
2022/04/25 06:05:20;;;;;;;4.82;1.40;;;;;;;6.82;63.00;101401.31;4883853;29;20044;-81
2022/04/25 06:07:47;;;;;;;3.88;1.10;;;;;;;6.96;62.86;101407.88;4885070;29;20029;-82
2022/04/25 06:10:15;;;;;;;1.35;1.10;;;;;;;7.27;62.40;101399.28;4893444;29;20032;-82
2022/04/25 06:12:43;;;;;;;1.98;1.10;;;;;;;7.36;61.88;101398.31;4903182;29;20137;-81
2022/04/25 06:15:09;;;;;;;3.35;1.20;;;;;;;7.42;61.36;101386.97;4893809;29;20033;-82
2022/04/25 06:17:38;;;;;;;4.00;1.23;;;;;;;7.71;61.65;101405.22;4887594;29;20547;-81
2022/04/25 06:20:09;;;;;;;5.90;1.38;;;;;;;7.93;60.35;101408.28;4889865;29;20037;-82
2022/04/25 06:22:35;;;;;;;2.60;1.58;;;;;;;8.00;59.90;101404.75;4884239;29;20048;-82
2022/04/25 06:25:01;;;;;;;5.15;1.42;;;;;;;7.77;58.90;101385.81;4882228;29;20040;-82
2022/04/25 06:27:27;;;;;;;2.08;1.50;;;;;;;7.97;58.56;101394.34;4884525;29;20025;-82
2022/04/25 06:29:52;;;;;;;2.53;1.52;;;;;;;8.17;58.65;101397.53;4882526;29;20128;-82
2022/04/25 06:32:19;;;;;;;3.83;1.70;;;;;;;7.92;59.75;101369.94;4891475;29;20029;-81
2022/04/25 06:34:45;;;;;;;3.05;1.40;;;;;;;8.00;60.88;101396.72;4898163;29;20478;-82
2022/04/25 06:37:11;;;;;;;3.13;1.50;;;;;;;8.06;62.02;101397.06;4888973;29;20048;-81
2022/04/25 06:39:36;;;;;;;2.67;1.60;;;;;;;8.18;61.77;101388.50;4880724;29;20104;-82
2022/04/25 06:42:02;;;;;;;2.00;1.48;;;;;;;8.19;62.00;101387.50;4868471;29;20068;-81
2022/04/25 06:44:28;;;;;;;3.88;1.45;;;;;;;8.44;60.97;101385.66;4881466;29;20036;-81
2022/04/25 06:46:53;;;;;;;2.38;1.30;;;;;;;8.63;59.83;101395.16;4879794;29;20116;-81
2022/04/25 06:49:23;;;;;;;3.45;0.90;;;;;;;8.70;58.48;101382.72;4880722;29;20516;-81
2022/04/25 06:51:58;;;;;;;2.65;0.82;;;;;;;8.68;55.98;101390.13;4882579;29;20065;-81
2022/04/25 06:54:25;;;;;;;5.45;1.20;;;;;;;8.83;56.67;101384.84;4885706;29;20534;-81
2022/04/25 06:56:52;;;;;;;2.58;0.90;;;;;;;8.85;56.33;101388.22;4879640;29;20064;-81
2022/04/25 06:59:19;;;;;;;2.10;1.30;;;;;;;8.96;55.57;101391.53;4885431;29;20053;-82
2022/04/25 07:01:45;;;;;;;1.58;0.95;;;;;;;8.98;55.11;101389.50;4879555;29;20025;-81
2022/04/25 07:04:16;;;;;;;1.77;0.90;;;;;;;9.13;54.61;101382.38;4909994;29;20059;-82
2022/04/25 07:06:43;;;;;;;1.20;0.90;;;;;;;9.33;54.60;101383.59;4883247;29;20032;-80
2022/04/25 07:09:12;;;;;;;1.05;0.63;;;;;;;9.38;53.86;101386.63;4882751;29;20115;-81
2022/04/25 07:11:41;;;;;;;1.77;0.80;;;;;;;9.49;53.43;101381.84;4880706;29;20047;-82
2022/04/25 07:14:06;;;;;;;2.30;0.70;;;;;;;9.47;53.33;101370.44;4880297;29;20041;-81
2022/04/25 07:16:32;;;;;;;0.90;0.70;;;;;;;9.75;52.69;101384.19;4880585;29;20039;-81
2022/04/25 07:18:57;;;;;;;1.08;0.75;;;;;;;9.85;51.66;101374.03;4880287;29;20057;-82
2022/04/25 07:29:35;;;;;;;2.92;0.90;;;;;;;9.50;53.92;101378.13;4882363;29;20123;-81
2022/04/25 07:32:01;;;;;;;2.88;0.90;;;;;;;9.31;53.48;101374.06;4880017;29;20084;-82
2022/04/25 07:34:26;;;;;;;1.52;0.85;;;;;;;9.26;53.05;101377.28;4880508;29;20097;-81
2022/04/25 07:36:53;;;;;;;1.95;0.85;;;;;;;9.38;53.25;101375.88;4879923;29;20096;-81
2022/04/25 07:39:19;;;;;;;0.88;0.80;;;;;;;9.40;52.82;101371.16;4880709;29;20029;-81
2022/04/25 07:41:45;;;;;;;1.77;1.00;;;;;;;9.44;52.84;101373.47;4866029;29;20033;-81
2022/04/25 07:44:11;;;;;;;0.80;0.68;;;;;;;9.31;52.13;101361.47;4880923;29;20466;-81
2022/04/25 07:46:37;;;;;;;1.33;0.90;;;;;;;9.43;52.83;101375.31;4878494;29;20116;-80
2022/04/25 07:49:03;;;;;;;1.10;0.80;;;;;;;9.49;52.22;101371.94;4882815;29;20040;-81
2022/04/25 07:51:29;;;;;;;3.58;1.00;;;;;;;9.46;56.36;101376.81;4880737;29;20048;-81
2022/04/25 07:53:54;;;;;;;2.83;1.00;;;;;;;9.38;56.42;101375.88;4882545;29;20093;-81
2022/04/25 07:56:19;;;;;;;2.60;1.00;;;;;;;9.31;57.03;101369.53;4884650;29;20089;-81
2022/04/25 07:58:45;;;;;;;3.70;1.10;;;;;;;9.35;56.79;101370.03;4885580;29;20056;-81
2022/04/25 08:01:11;;;;;;;1.80;0.98;;;;;;;9.36;57.02;101372.50;4888972;29;20353;-81
2022/04/25 08:03:36;;;;;;;2.75;1.05;;;;;;;9.35;58.10;101362.78;4883899;29;20040;-81
2022/04/25 08:06:02;;;;;;;3.28;1.30;;;;;;;9.14;61.28;101355.38;4884699;29;20416;-81
2022/04/25 08:08:27;;;;;;;2.13;1.20;;;;;;;8.99;60.51;101340.19;4884706;29;20039;-81
2022/04/25 08:10:52;;;;;;;2.63;1.27;;;;;;;9.15;59.90;101370.47;4882116;29;20120;-81
2022/04/25 08:18:46;;;;;;;1.20;1.10;;;;;;;9.04;61.68;101357.44;4886096;29;20060;-82
2022/04/25 08:21:11;;;;;;;2.92;1.00;;;;;;;9.19;61.29;101368.25;4876138;29;20416;-81
2022/04/25 08:23:36;;;;;;;1.10;0.90;;;;;;;9.38;61.15;101367.81;4864218;29;20041;-81
2022/04/25 08:26:02;;;;;;;1.35;1.00;;;;;;;9.50;59.75;101370.91;4884394;29;20089;-81
2022/04/25 08:28:27;;;;;;;1.20;0.90;;;;;;;9.58;60.00;101372.72;4881792;29;20482;-81
2022/04/25 08:30:53;;;;;;;1.30;0.90;;;;;;;9.64;59.66;101362.09;4878393;29;20060;-81
2022/04/25 08:33:20;;;;;;;1.15;0.80;;;;;;;9.58;60.69;101352.06;4908792;29;20367;-81
2022/04/25 08:35:46;;;;;;;1.15;0.85;;;;;;;9.56;61.44;101364.81;4884756;29;20044;-81
2022/04/25 08:38:12;;;;;;;1.25;0.90;;;;;;;9.28;61.60;101358.31;4879388;29;20063;-81
2022/04/25 08:40:39;;;;;;;1.45;1.15;;;;;;;9.29;65.51;101358.13;4850774;29;20464;-81
2022/04/25 08:43:06;;;;;;;1.13;0.85;;;;;;;9.26;66.03;101347.72;4882650;29;20131;-81
2022/04/25 08:45:32;;;;;;;1.45;1.10;;;;;;;9.37;64.89;101363.47;4866869;29;20412;-80
2022/04/25 08:48:00;;;;;;;2.17;1.25;;;;;;;9.54;65.67;101352.59;4882901;29;20375;-81
2022/04/25 08:50:27;;;;;;;1.38;1.20;;;;;;;9.58;64.91;101359.28;4883480;29;20037;-81
2022/04/25 08:52:54;;;;;;;1.27;1.13;;;;;;;9.59;64.83;101358.25;4883924;29;20364;-80
2022/04/25 08:55:20;;;;;;;2.00;1.02;;;;;;;9.55;66.61;101352.41;4901501;29;20070;-80
2022/04/25 08:57:48;;;;;;;1.75;1.20;;;;;;;9.58;67.03;101360.13;4891039;29;20032;-80
2022/04/25 09:00:15;;;;;;;1.30;1.08;;;;;;;9.38;70.59;101359.75;4900009;29;20036;-80
2022/04/25 09:02:41;;;;;;;1.92;0.93;;;;;;;9.31;69.79;101352.59;4882516;29;20028;-81
2022/04/25 09:05:08;;;;;;;1.40;0.98;;;;;;;9.17;68.55;101348.78;4896759;29;20052;-79
2022/04/25 09:07:37;;;;;;;1.40;1.00;;;;;;;9.15;68.50;101356.19;4881651;29;20044;-80
2022/04/25 09:10:04;;;;;;;1.08;0.73;;;;;;;8.89;66.18;101300.97;4881977;29;20017;-81
2022/04/25 09:12:30;;;;;;;1.90;0.85;;;;;;;9.35;64.82;101365.47;4883031;29;20037;-80
2022/04/25 09:14:56;;;;;;;1.67;1.00;;;;;;;9.16;67.67;101364.06;4882184;29;20044;-79
2022/04/25 09:17:22;;;;;;;1.30;1.00;;;;;;;9.12;66.73;101351.19;4883119;29;20033;-80
2022/04/25 09:19:48;;;;;;;0.75;0.70;;;;;;;8.97;65.81;101343.03;4846598;29;20063;-80
2022/04/25 09:22:30;;;;;;;1.52;0.90;;;;;;;9.04;67.05;101360.13;4884261;29;20523;-80
2022/04/25 09:25:03;;;;;;;2.45;1.00;;;;;;;8.70;71.23;101326.38;4890211;29;20030;-80
2022/04/25 09:27:28;;;;;;;2.15;0.90;;;;;;;8.85;70.45;101347.13;4892404;29;20451;-82
2022/04/25 09:29:54;;;;;;;0.70;0.57;;;;;;;8.85;71.32;101347.97;4924348;29;20033;-81
2022/04/25 09:32:31;;;;;;;1.73;0.95;;;;;;;8.98;70.89;101360.00;4904720;29;20037;-81
2022/04/25 09:35:05;;;;;;;1.70;0.88;;;;;;;8.91;73.90;101352.63;4896954;29;20085;-83
2022/04/25 09:37:45;;;;;;;1.10;0.80;;;;;;;8.68;74.75;101308.78;4903191;29;20041;-83
2022/04/25 09:40:11;;;;;;;1.55;1.00;;;;;;;8.97;73.18;101345.69;4896607;29;20029;-82
2022/04/25 09:42:37;;;;;;;2.25;0.90;;;;;;;8.72;72.59;101303.91;4886639;29;20486;-80
2022/04/25 09:45:03;;;;;;;0.80;0.80;;;;;;;8.86;75.69;101341.56;4866337;29;20025;-80
2022/04/25 09:47:34;;;;;;;1.88;0.90;;;;;;;8.94;75.48;101351.44;4865335;29;20085;-80
2022/04/25 09:50:13;;;;;;;1.88;1.08;;;;;;;8.89;76.30;101333.16;4865711;29;20017;-80
2022/04/25 09:52:53;;;;;;;1.48;0.98;;;;;;;8.88;77.67;101344.94;4907243;29;20080;-80
2022/04/25 09:55:20;;;;;;;1.38;0.80;;;;;;;8.96;76.67;101346.72;4883487;29;20025;-80
2022/04/25 09:57:46;;;;;;;1.27;0.90;;;;;;;8.98;77.81;101336.66;4881781;29;20486;-81
2022/04/25 10:00:14;;;;;;;1.30;0.95;;;;;;;9.09;77.84;101343.47;4882659;29;20120;-80
2022/04/25 10:02:40;;;;;;;1.42;0.75;;;;;;;9.13;75.70;101345.63;4881208;29;20365;-80
2022/04/25 10:05:17;;;;;;;1.02;0.85;;;;;;;8.97;73.81;101329.59;4879031;29;20040;-80
2022/04/25 10:07:43;;;;;;;0.80;0.70;;;;;;;9.01;75.07;101319.38;4881997;29;20047;-80
2022/04/25 10:10:10;;;;;;;1.25;0.85;;;;;;;9.20;76.44;101342.22;4880143;29;20040;-79
2022/04/25 10:12:36;;;;;;;2.17;0.90;;;;;;;9.17;76.22;101338.03;4879139;29;20223;-80
2022/04/25 10:15:04;;;;;;;1.48;0.95;;;;;;;9.15;77.05;101313.25;4881476;29;20029;-79
2022/04/25 10:17:31;;;;;;;2.75;0.90;;;;;;;9.24;76.13;101340.84;4881611;29;20036;-80
2022/04/25 10:20:00;;;;;;;0.85;0.80;;;;;;;9.29;77.74;101338.50;4881038;29;20057;-79
2022/04/25 10:22:26;;;;;;;1.80;0.98;;;;;;;9.45;79.47;101338.38;4863059;29;20029;-80
2022/04/25 10:24:51;;;;;;;2.38;0.90;;;;;;;9.35;80.48;101341.31;4880758;29;20455;-80
2022/04/25 10:27:19;;;;;;;2.55;1.25;;;;;;;9.29;81.98;101333.94;4875585;29;20040;-80
2022/04/25 10:29:50;;;;;;;1.65;1.08;;;;;;;9.31;82.41;101340.00;4888150;29;20049;-80
2022/04/25 10:32:21;;;;;;;2.00;1.10;;;;;;;9.28;83.25;101318.88;4878270;29;20439;-81
2022/04/25 10:34:51;;;;;;;2.08;0.88;;;;;;;9.36;81.08;101334.91;4880436;29;20083;-80
2022/04/25 10:37:32;;;;;;;1.95;1.00;;;;;;;9.25;81.58;101329.13;4867050;29;20321;-80
2022/04/25 10:39:59;;;;;;;2.75;0.88;;;;;;;9.22;84.05;101316.88;4880706;29;20033;-80
2022/04/25 10:45:10;;;;;;;1.05;0.95;;;;;;;8.86;85.32;101271.78;4879186;29;20052;-80
2022/04/25 10:47:35;;;;;;;3.20;1.05;;;;;;;9.23;84.85;101329.28;4881455;29;20443;-80
2022/04/25 10:50:08;;;;;;;1.35;1.13;;;;;;;9.09;84.14;101317.47;4849281;29;20042;-80
2022/04/25 10:52:33;;;;;;;1.88;0.90;;;;;;;9.15;84.51;101319.44;4876226;29;20484;-80
2022/04/25 10:55:31;;;;;;;3.40;1.25;;;;;;;9.30;85.76;101329.41;4880310;29;20038;-80
2022/04/25 10:58:03;;;;;;;2.95;1.10;;;;;;;9.28;86.25;101309.97;4881824;29;20036;-80
2022/04/25 11:00:48;;;;;;;0.90;0.90;;;;;;;9.27;87.98;101319.88;4877342;29;20021;-80
2022/04/25 11:03:14;;;;;;;;;;;;;;;9.14;84.60;101320.47;4880341;29;20182;-80
2022/04/25 11:05:42;;;;;;;1.77;1.00;;;;;;;9.19;84.41;101314.56;4885877;29;19911;-81
2022/04/25 11:08:20;;;;;;;1.88;1.00;;;;;;;9.36;84.86;101326.84;4888801;29;20020;-81
2022/04/25 11:10:59;;;;;;;1.55;0.80;;;;;;;9.35;83.92;101317.13;4884424;29;20097;-80
2022/04/25 11:13:31;;;;;;;1.48;0.90;;;;;;;9.31;85.27;101325.75;4888857;29;20022;-80
2022/04/25 11:16:16;;;;;;;2.28;0.85;;;;;;;9.47;81.55;101330.13;4880393;29;20060;-80
2022/04/25 11:18:42;;;;;;;1.88;0.60;;;;;;;9.58;79.89;101327.06;4877680;29;20029;-80
2022/04/25 11:21:08;;;;;;;0.80;0.63;;;;;;;9.58;79.28;101321.69;4881018;29;20055;-81
2022/04/25 11:23:53;;;;;;;2.03;0.70;;;;;;;9.56;80.23;101321.00;4879213;29;20029;-81
2022/04/25 11:26:22;;;;;;;1.50;0.70;;;;;;;9.61;79.61;101326.69;4876862;29;20033;-80
2022/04/25 11:29:03;;;;;;;1.63;0.88;;;;;;;9.63;78.64;101327.31;4880190;29;20021;-80
2022/04/25 11:31:30;;;;;;;1.65;1.00;;;;;;;9.28;78.79;101301.91;4878891;29;20098;-81
2022/04/25 11:34:01;;;;;;;1.42;0.80;;;;;;;9.46;78.58;101315.88;4879509;29;20028;-80
2022/04/25 11:36:27;;;;;;;1.45;0.70;;;;;;;9.54;78.07;101317.69;4879526;29;20116;-80
2022/04/25 11:41:41;;;;;;;1.73;0.98;;;;;;;9.40;80.15;101330.88;4877674;29;20097;-80
2022/04/25 11:44:07;;;;;;;2.05;1.02;;;;;;;9.50;81.71;101329.78;4877399;29;20037;-80
2022/04/25 11:46:34;;;;;;;1.10;0.75;;;;;;;9.56;81.70;101329.06;4879277;29;20037;-81
2022/04/25 11:49:00;;;;;;;1.10;0.70;;;;;;;9.58;81.83;101327.06;4878859;29;20025;-80
2022/04/25 11:51:45;;;;;;;1.58;0.68;;;;;;;9.60;82.24;101317.81;4880405;29;20068;-81
2022/04/25 11:54:10;;;;;;;1.10;0.80;;;;;;;9.46;79.84;101304.28;4881494;29;20108;-80
2022/04/25 11:56:40;;;;;;;1.58;0.80;;;;;;;9.57;80.01;101311.91;4880039;29;20130;-80
2022/04/25 11:59:07;;;;;;;1.45;0.80;;;;;;;9.45;79.21;101303.47;4889768;29;20045;-80
2022/04/25 12:01:52;;;;;;;3.70;0.90;;;;;;;9.59;78.45;101324.16;4880185;29;20029;-80
2022/04/25 12:04:21;;;;;;;2.47;0.77;;;;;;;9.53;77.99;101313.31;4879410;29;20033;-81
2022/04/25 12:06:52;;;;;;;1.00;0.90;;;;;;;9.59;80.38;101328.72;4878637;29;20044;-80
2022/04/25 12:17:42;;;;;;;2.45;1.10;;;;;;;9.71;81.49;101327.28;4883629;29;20427;-81
2022/04/25 12:20:10;;;;;;;2.03;0.90;;;;;;;9.64;81.88;101320.97;4879026;29;20053;-81